Artern, Germany

1:47 AM CET on January 31, 2015 (GMT +0100)
ISACHSEN47 | Change Station
CLOSE
Current Station
Personal Weather Station
Location: Sangerhausen, SACHSEN-ANHALT
Elevation: 758 ft
Nearby Weather Stations

Elev 758 ft 51.49 °N, 11.29 °E | Updated 46 minutes ago

Clear
Clear
27.7 °F
Feels Like 28 °F
N
0.0
Wind Variable Wind from WSW
Gusts 0.0 mph

Today
High -- | Low -- °F
--% Chance of Precip.
Yesterday
High -- | Low -- °F
Precip. -- in
7:54 AM 5:02 PM
Waxing Gibbous, 86% visible
Pressure 28.85 in
Visibility -9999.0 miles
Clouds
Windchill 28 °F
Dew Point 26 °F
Humidity 94%
Rainfall 0.00 in
Snow Depth Not available.
UV 0.0 out of 12
Pollen Not available.
Air Quality Not available.
Flu Activity Not available.
METAR EDDE 310020Z 24007KT CAVOK M03/M04 Q0977 R88/290095

More Conditions Fewer Conditions

Pressure 28.85 in
Visibility -9999.0 miles
Clouds
Windchill 28 °F
Dew Point 26 °F
Humidity 94%
Rainfall 0.00 in
Snow Depth Not available.
UV 0.0 out of 12
Pollen Not available.
Air Quality Not available.
Flu Activity Not available.
METAR EDDE 310020Z 24007KT CAVOK M03/M04 Q0977 R88/290095

More Conditions Fewer Conditions

10-Day Weather Forecast

Almanac

Astronomy

Jan. 31, 2015 Rise Set
Actual Time
Civil Twilight
Nautical Twilight
Astronomical Twilight
Moon
Length of Visible Light
Length of Day
Tomorrow will be .
, % of the Moon is Illuminated

Today's Extremes

Country Highs Country Lows

Community

WunderPhotos

Upload Photos

1,791,942 photos uploaded!

WunderBlogs® & News

Nearby

Air Quality

  Air Quality AQ Index Pollutant
Not available.

Snow Depth

Station Depth Elevation

Earthquake Activity

City Distance Mag. Time & Date
Minimum magnitude displayed is 2.5.

Coastal Water Temperatures

Place Temperature

Nearby Weather Stations